Terminal Aerodrome Forecast
Issued by NWS Sterling, VA

Current Version | Previous Version | Text Only | Print | Product List | Glossary On
Versions: 1 2 3 4 5 6 7 8 9 10 11 12 13 14
426
FTUS41 KLWX 192325
TAFMRB
TAF
KMRB 192325Z 2000/2024 VRB03KT P6SM SKC
     FM200800 00000KT 3SM BR SCT001
     FM201200 33007KT P6SM FEW050 FEW200=

USA.gov is the U.S. government's official web portal to all federal, state and local government web resources and services.